Time;durP1;ratioP1;P1;durP2;ratioP2;P2;SDS_P1;SDS_P2;PMS_P1;PMS_P2;Temp;Humidity;BMP_temperature;BMP_pressure;BME280_temperature;BME280_humidity;BME280_pressure;Samples;Min_cycle;Max_cycle;Signal;HPM_P1;HPM_P2
2021/09/08 00:03:54;;;;;;;13.17;12.07;;;18.20;99.90;;;;;;10322859;28;20245;-83
2021/09/08 00:08:56;;;;;;;13.83;12.63;;;18.20;99.90;;;;;;10326569;28;20326;-84
2021/09/08 00:13:59;;;;;;;12.50;11.50;;;18.10;99.90;;;;;;10349358;28;20219;-84
2021/09/08 00:19:02;;;;;;;13.90;12.53;;;18.10;99.90;;;;;;10342728;23;20227;-81
2021/09/08 00:24:04;;;;;;;13.90;12.73;;;18.10;99.90;;;;;;10335071;28;20768;-81
2021/09/08 00:29:08;;;;;;;12.97;11.77;;;18.10;99.90;;;;;;10332276;28;20613;-81
2021/09/08 00:34:10;;;;;;;14.07;12.83;;;18.00;99.90;;;;;;10331128;28;20195;-81
2021/09/08 00:39:34;;;;;;;14.20;12.93;;;18.00;99.90;;;;;;10349980;28;20237;-80
2021/09/08 00:44:41;;;;;;;14.43;13.23;;;18.00;99.90;;;;;;10334771;28;20199;-81
2021/09/08 00:49:43;;;;;;;14.30;13.00;;;17.90;99.90;;;;;;10334048;28;20318;-80
2021/09/08 00:54:48;;;;;;;13.80;12.60;;;17.90;99.90;;;;;;10336900;28;20269;-82
2021/09/08 00:59:55;;;;;;;14.00;12.70;;;17.80;99.90;;;;;;10330589;28;20261;-81
2021/09/08 01:05:02;;;;;;;14.00;12.70;;;17.80;99.90;;;;;;10336874;28;20227;-81
2021/09/08 01:10:07;;;;;;;13.50;12.40;;;17.70;99.90;;;;;;10330647;28;20227;-81
2021/09/08 01:15:12;;;;;;;14.07;12.67;;;17.70;99.90;;;;;;10329123;28;20245;-80
2021/09/08 01:20:17;;;;;;;14.50;13.20;;;17.70;99.90;;;;;;10329902;28;20599;-81
2021/09/08 01:25:23;;;;;;;13.90;12.70;;;17.60;99.90;;;;;;10402940;28;20188;-80
2021/09/08 01:30:26;;;;;;;14.27;12.87;;;17.60;99.90;;;;;;10541286;28;20207;-81
2021/09/08 01:35:29;;;;;;;13.33;12.23;;;17.50;99.90;;;;;;10542608;28;20200;-81
2021/09/08 01:40:33;;;;;;;14.10;13.00;;;17.50;99.90;;;;;;10541352;28;20199;-81
2021/09/08 01:45:35;;;;;;;14.17;12.97;;;17.50;99.90;;;;;;10540461;28;20200;-81
2021/09/08 01:50:38;;;;;;;13.67;12.57;;;17.50;99.90;;;;;;10546552;28;20192;-81
2021/09/08 01:55:41;;;;;;;15.07;13.70;;;17.50;99.90;;;;;;10453839;28;20207;-80
2021/09/08 02:00:44;;;;;;;14.13;12.83;;;17.40;99.90;;;;;;10345138;28;20230;-81
2021/09/08 02:05:46;;;;;;;14.67;13.27;;;17.50;99.90;;;;;;10329187;28;20214;-81
2021/09/08 02:10:52;;;;;;;13.60;12.43;;;17.40;99.90;;;;;;10344827;28;20203;-81
2021/09/08 02:15:55;;;;;;;13.40;12.30;;;17.40;99.90;;;;;;10328844;28;20229;-81
2021/09/08 02:20:57;;;;;;;14.20;12.97;;;17.30;99.90;;;;;;10329256;28;20199;-81
2021/09/08 02:26:01;;;;;;;15.90;14.33;;;17.30;99.90;;;;;;10427627;28;20220;-81
2021/09/08 02:31:03;;;;;;;13.53;12.33;;;17.30;99.90;;;;;;10541506;28;20632;-81
2021/09/08 02:36:06;;;;;;;14.27;12.80;;;17.20;99.90;;;;;;10539507;28;20570;-81
2021/09/08 02:41:10;;;;;;;14.60;13.33;;;17.20;99.90;;;;;;10545072;28;20276;-80
2021/09/08 02:46:12;;;;;;;15.27;13.97;;;17.10;99.90;;;;;;10538393;28;20583;-81
2021/09/08 02:51:14;;;;;;;14.87;13.53;;;17.00;99.90;;;;;;10540029;28;20199;-81
2021/09/08 02:56:18;;;;;;;15.10;13.60;;;17.00;99.90;;;;;;10408452;28;20234;-81
2021/09/08 03:01:20;;;;;;;14.60;13.10;;;17.00;99.90;;;;;;10326449;28;20652;-80
2021/09/08 03:06:22;;;;;;;14.63;13.47;;;17.00;99.90;;;;;;10328173;28;20302;-80
2021/09/08 03:11:26;;;;;;;15.40;13.90;;;16.90;99.90;;;;;;10342386;28;20205;-81
2021/09/08 03:16:28;;;;;;;15.43;14.07;;;16.90;99.90;;;;;;10326380;28;20242;-80
2021/09/08 03:21:30;;;;;;;14.03;12.70;;;16.90;99.90;;;;;;10310903;28;20230;-81
2021/09/08 03:26:33;;;;;;;15.60;14.27;;;16.90;99.90;;;;;;10451259;28;20637;-81
2021/09/08 03:31:36;;;;;;;14.30;13.03;;;16.90;99.90;;;;;;10539137;28;20199;-81
2021/09/08 03:36:38;;;;;;;15.67;14.37;;;16.80;99.90;;;;;;10539028;28;20307;-82
2021/09/08 03:41:41;;;;;;;14.43;13.23;;;16.80;99.90;;;;;;10541591;28;20210;-81
2021/09/08 03:46:43;;;;;;;15.33;14.03;;;16.80;99.90;;;;;;10543828;28;20218;-81
2021/09/08 03:51:45;;;;;;;14.67;13.27;;;16.80;99.90;;;;;;10539172;28;20231;-80
2021/09/08 03:56:49;;;;;;;14.60;13.30;;;16.80;99.90;;;;;;10407641;28;20590;-80
2021/09/08 04:01:51;;;;;;;15.27;13.87;;;16.80;99.90;;;;;;10353762;28;20298;-80
2021/09/08 04:06:53;;;;;;;15.80;14.50;;;16.70;99.90;;;;;;10328481;28;20242;-81
2021/09/08 04:11:58;;;;;;;14.80;13.50;;;16.70;99.90;;;;;;10331402;28;20212;-80
2021/09/08 04:17:00;;;;;;;16.77;15.17;;;16.70;99.90;;;;;;10330316;28;20774;-81
2021/09/08 04:22:02;;;;;;;15.30;13.90;;;16.70;99.90;;;;;;10331309;28;20215;-81
2021/09/08 04:27:06;;;;;;;15.00;13.60;;;16.60;99.90;;;;;;10329158;28;20219;-81
2021/09/08 04:32:08;;;;;;;15.63;13.90;;;16.60;99.90;;;;;;10329177;28;20560;-81
2021/09/08 04:37:10;;;;;;;16.13;14.73;;;16.50;99.90;;;;;;10323007;28;20231;-82
2021/09/08 04:42:13;;;;;;;15.20;13.70;;;16.50;99.90;;;;;;10327383;28;20298;-81
2021/09/08 04:47:15;;;;;;;15.03;13.67;;;16.50;99.90;;;;;;10330472;28;20272;-82
2021/09/08 04:52:18;;;;;;;16.10;14.70;;;16.40;99.90;;;;;;10332349;28;20224;-82
2021/09/08 04:57:21;;;;;;;16.03;14.63;;;16.40;99.90;;;;;;10303285;28;20679;-82
2021/09/08 05:02:23;;;;;;;15.20;13.90;;;16.40;99.90;;;;;;10289207;28;20204;-81
2021/09/08 05:07:26;;;;;;;16.30;14.73;;;16.40;99.90;;;;;;10291074;28;20230;-81
2021/09/08 05:12:29;;;;;;;14.83;13.63;;;16.40;99.90;;;;;;10291254;28;20679;-82
2021/09/08 05:17:31;;;;;;;15.33;14.03;;;16.40;99.90;;;;;;10291151;28;20224;-81
2021/09/08 05:22:34;;;;;;;16.00;14.57;;;16.40;99.90;;;;;;10379172;28;20211;-82
2021/09/08 05:27:37;;;;;;;15.63;14.13;;;16.40;99.90;;;;;;10443512;28;20224;-82
2021/09/08 05:32:39;;;;;;;15.53;14.13;;;16.40;99.90;;;;;;10455488;28;20192;-81
2021/09/08 05:37:42;;;;;;;14.63;13.10;;;16.40;99.90;;;;;;10527268;28;20223;-81
2021/09/08 05:42:45;;;;;;;16.30;14.90;;;16.40;99.90;;;;;;10540133;28;20188;-81
2021/09/08 05:47:47;;;;;;;14.80;13.60;;;16.40;99.90;;;;;;10524977;28;20270;-81
2021/09/08 05:52:50;;;;;;;14.80;13.60;;;16.40;99.90;;;;;;10529233;28;20196;-81
2021/09/08 05:57:53;;;;;;;15.50;14.10;;;16.40;99.90;;;;;;10362407;28;20220;-81
2021/09/08 06:02:55;;;;;;;15.63;14.33;;;16.50;99.90;;;;;;10309921;28;20210;-81
2021/09/08 06:07:57;;;;;;;14.03;12.90;;;16.50;99.90;;;;;;10329615;28;20235;-81
2021/09/08 06:13:00;;;;;;;15.13;13.77;;;16.50;99.90;;;;;;10310712;28;20203;-81
2021/09/08 06:18:04;;;;;;;17.83;16.23;;;16.60;99.90;;;;;;10331427;28;20215;-81
2021/09/08 06:23:06;;;;;;;18.00;16.40;;;16.60;99.90;;;;;;10310216;28;20299;-81
2021/09/08 06:28:10;;;;;;;17.73;16.03;;;16.60;99.90;;;;;;10520278;28;20261;-81
2021/09/08 06:33:12;;;;;;;18.73;16.97;;;16.70;99.90;;;;;;10546481;28;20226;-81
2021/09/08 06:38:14;;;;;;;18.13;16.53;;;16.80;99.90;;;;;;10528136;28;20683;-81
2021/09/08 06:43:18;;;;;;;18.77;17.03;;;16.80;99.90;;;;;;10544752;28;20249;-81
2021/09/08 06:48:26;;;;;;;17.60;16.10;;;16.90;99.90;;;;;;10546831;28;20234;-82
2021/09/08 06:53:28;;;;;;;19.20;17.40;;;17.00;99.90;;;;;;10545748;28;20283;-81
2021/09/08 06:58:31;;;;;;;18.20;16.47;;;17.00;99.90;;;;;;10322338;28;20729;-81
2021/09/08 07:03:33;;;;;;;19.93;18.07;;;17.10;99.90;;;;;;10316407;28;20636;-81
2021/09/08 07:08:35;;;;;;;19.00;17.30;;;17.20;99.90;;;;;;10335526;28;20223;-82
2021/09/08 07:13:39;;;;;;;21.20;18.33;;;17.30;99.90;;;;;;10335491;28;20210;-81
2021/09/08 07:18:41;;;;;;;18.33;16.50;;;17.40;99.90;;;;;;10337910;28;20586;-81
2021/09/08 07:23:44;;;;;;;19.27;17.50;;;17.50;99.90;;;;;;10345579;28;20208;-81
2021/09/08 07:28:47;;;;;;;20.60;18.60;;;17.60;99.90;;;;;;10547557;28;20707;-81
2021/09/08 07:33:49;;;;;;;21.70;19.50;;;17.70;99.90;;;;;;10552149;28;20555;-82
2021/09/08 07:38:52;;;;;;;20.03;18.07;;;17.80;99.90;;;;;;10553417;28;20230;-81
2021/09/08 07:43:55;;;;;;;22.33;20.30;;;17.90;99.90;;;;;;10553888;28;20663;-81
2021/09/08 07:48:57;;;;;;;20.57;18.57;;;18.00;99.90;;;;;;10555508;28;20224;-81
2021/09/08 07:54:00;;;;;;;20.40;18.40;;;18.10;99.90;;;;;;10549328;28;20211;-81
2021/09/08 07:59:04;;;;;;;22.10;18.80;;;18.30;99.90;;;;;;10338843;28;20230;-81
2021/09/08 08:04:06;;;;;;;17.53;15.80;;;18.40;99.90;;;;;;10336757;28;20207;-80
2021/09/08 08:09:08;;;;;;;17.17;15.60;;;18.60;99.90;;;;;;10338704;28;20310;-80
2021/09/08 08:14:13;;;;;;;15.33;13.93;;;18.70;99.90;;;;;;10335919;28;20203;-80
2021/09/08 08:19:15;;;;;;;14.50;13.20;;;18.80;99.90;;;;;;10342382;28;20706;-81
2021/09/08 08:24:17;;;;;;;17.17;13.73;;;18.90;99.90;;;;;;10373250;28;20727;-80
2021/09/08 08:29:21;;;;;;;15.53;14.23;;;19.00;99.90;;;;;;10554618;28;20245;-81
2021/09/08 08:34:23;;;;;;;13.80;12.50;;;19.10;99.90;;;;;;10554802;28;20643;-80
2021/09/08 08:39:25;;;;;;;13.87;12.57;;;19.20;99.90;;;;;;10558213;28;20704;-81
2021/09/08 08:44:29;;;;;;;12.90;11.77;;;19.30;99.90;;;;;;10553100;28;20269;-81
2021/09/08 08:49:32;;;;;;;12.67;11.40;;;19.40;99.90;;;;;;10552660;28;20232;-80
2021/09/08 08:54:34;;;;;;;12.50;11.27;;;19.50;99.90;;;;;;10555401;28;20200;-81
2021/09/08 08:59:38;;;;;;;12.80;11.60;;;19.60;99.90;;;;;;10556130;28;20299;-80
2021/09/08 09:04:40;;;;;;;11.53;10.47;;;19.70;99.90;;;;;;10571403;28;20200;-81
2021/09/08 09:09:43;;;;;;;12.17;10.97;;;19.80;99.90;;;;;;10561967;28;20227;-81
2021/09/08 09:14:50;;;;;;;12.33;11.10;;;20.00;99.90;;;;;;10551396;28;20226;-81
2021/09/08 09:19:52;;;;;;;10.87;9.80;;;20.10;99.90;;;;;;10552818;28;20282;-81
2021/09/08 09:24:54;;;;;;;11.60;10.60;;;20.10;99.90;;;;;;10553349;28;20208;-81
2021/09/08 09:30:04;;;;;;;9.73;8.93;;;20.20;99.90;;;;;;10552438;28;20245;-81
2021/09/08 09:35:08;;;;;;;10.20;9.40;;;20.30;99.90;;;;;;10553912;28;20291;-80
2021/09/08 09:40:11;;;;;;;10.77;9.87;;;20.40;99.90;;;;;;10538470;28;20212;-80
2021/09/08 09:45:17;;;;;;;10.30;9.50;;;20.60;99.90;;;;;;10557108;28;20200;-81
2021/09/08 09:50:21;;;;;;;10.10;9.20;;;20.90;99.90;;;;;;10542858;28;20242;-81
2021/09/08 09:55:25;;;;;;;9.90;9.10;;;21.20;99.90;;;;;;10544586;28;20312;-81
2021/09/08 10:00:29;;;;;;;9.90;8.90;;;21.70;99.10;;;;;;10549288;28;20196;-80
2021/09/08 10:05:31;;;;;;;8.40;7.70;;;22.10;99.40;;;;;;10551211;28;20298;-81
2021/09/08 10:10:35;;;;;;;9.33;8.63;;;22.30;99.50;;;;;;10553228;28;20215;-80
2021/09/08 10:15:39;;;;;;;10.20;8.77;;;22.30;99.80;;;;;;10550189;28;20196;-81
2021/09/08 10:20:44;;;;;;;11.20;10.20;;;22.20;99.50;;;;;;10551181;28;20723;-81
2021/09/08 10:25:51;;;;;;;10.00;8.93;;;22.20;98.80;;;;;;10533563;28;20408;-80
2021/09/08 10:30:58;;;;;;;10.60;9.70;;;22.00;99.00;;;;;;10551085;28;20225;-81
2021/09/08 10:36:00;;;;;;;9.70;8.90;;;22.00;99.90;;;;;;10552438;28;20769;-80
2021/09/08 10:41:05;;;;;;;11.43;10.43;;;21.90;99.60;;;;;;10550871;28;20192;-80
2021/09/08 10:46:09;;;;;;;10.30;9.50;;;21.80;99.90;;;;;;10551411;28;20239;-80
2021/09/08 10:51:17;;;;;;;10.73;9.93;;;21.80;99.90;;;;;;10559760;28;20223;-80
2021/09/08 10:56:45;;;;;;;10.73;9.73;;;21.80;97.80;;;;;;10550598;28;20494;-80
2021/09/08 11:01:54;;;;;;;9.90;9.00;;;21.80;98.20;;;;;;10550832;28;20211;-80
2021/09/08 11:06:56;;;;;;;9.70;8.87;;;21.90;97.60;;;;;;10555581;28;20253;-81
2021/09/08 11:11:59;;;;;;;9.53;8.80;;;21.90;97.60;;;;;;10558654;28;20219;-80
2021/09/08 11:17:03;;;;;;;9.27;8.57;;;21.90;99.10;;;;;;10557273;28;20314;-80
2021/09/08 11:22:06;;;;;;;9.03;8.23;;;21.80;99.80;;;;;;10556481;28;20184;-80
2021/09/08 11:27:08;;;;;;;9.33;8.63;;;21.80;98.00;;;;;;10556802;28;20238;-80
2021/09/08 11:32:14;;;;;;;9.50;8.70;;;22.00;97.30;;;;;;10537337;28;20647;-81
2021/09/08 11:37:17;;;;;;;9.40;8.50;;;22.00;98.80;;;;;;10544060;28;20318;-80
2021/09/08 11:42:19;;;;;;;9.80;9.00;;;22.00;97.90;;;;;;10556207;28;20224;-80
2021/09/08 11:47:22;;;;;;;9.10;8.40;;;22.00;97.50;;;;;;10556612;28;20231;-81
2021/09/08 11:52:28;;;;;;;10.20;9.10;;;22.00;98.70;;;;;;10556764;28;20219;-80
2021/09/08 11:57:30;;;;;;;8.87;8.17;;;22.00;99.20;;;;;;10557328;28;20219;-80
2021/09/08 12:02:33;;;;;;;9.30;8.50;;;21.90;99.60;;;;;;10573007;28;20306;-80
2021/09/08 12:07:35;;;;;;;9.03;8.33;;;21.90;98.80;;;;;;10555352;28;20300;-81
2021/09/08 12:12:38;;;;;;;9.50;8.70;;;21.90;98.90;;;;;;10557340;28;20250;-81
2021/09/08 12:17:43;;;;;;;11.33;8.50;;;21.90;99.90;;;;;;10550903;22;20615;-85
